Alpachiri, Argentina
Current Conditions -  °F | °C
As of 12:00 PM on Saturday 25 Oct 2014 (Local Time) from SAZN Reporting Station
Clear Clear  
Wind Chill: 79°   Ceiling: Unl
Heat Index: 79°   Visibility: 6mi
Dew Point: 46°   Wind: 6mph
Humidity: 32%   Direction: 290°WNW
Pressure: 29.85"   Gusts: NA
Location:  37.37°S, 63.77°W
Report Text: SAZN 251500Z 29005KT CAVOK 26/08 Q1011
Loading
Personal Weather Stations






























Interactive Weather Map
Tropical Storm Tracking
New forecast layout! Learn more

10-Day Weather Forecast

Advertisements
Track Severe Weather on mobile